createdAt,value
2023-01-25T00:00:56.169Z,14.18
2023-01-25T00:04:58.259Z,12.23
2023-01-25T00:09:00.546Z,11.95
2023-01-25T00:13:02.550Z,14.40
2023-01-25T00:17:04.822Z,12.93
2023-01-25T00:21:32.093Z,12.88
2023-01-25T00:25:34.106Z,14.25
2023-01-25T00:29:36.172Z,11.77
2023-01-25T00:33:38.147Z,11.63
2023-01-25T00:37:44.352Z,14.63
2023-01-25T00:41:46.460Z,13.40
2023-01-25T00:45:48.454Z,12.38
2023-01-25T00:49:50.503Z,14.07
2023-01-25T00:53:53.392Z,12.98
2023-01-25T00:57:55.490Z,12.10
2023-01-25T01:01:57.550Z,17.95
2023-01-25T01:06:11.050Z,13.95
2023-01-25T01:10:13.090Z,15.20
2023-01-25T01:14:15.213Z,14.68
2023-01-25T01:18:17.279Z,13.02
2023-01-25T01:22:20.435Z,16.45
2023-01-25T01:26:22.890Z,13.80
2023-01-25T01:30:24.925Z,13.82
2023-01-25T01:34:27.199Z,13.75
2023-01-25T01:38:30.022Z,14.88
2023-01-25T01:42:32.016Z,14.95
2023-01-25T01:46:39.524Z,15.35
2023-01-25T01:50:50.945Z,16.75
2023-01-25T01:54:58.731Z,17.70
2023-01-25T01:59:03.164Z,14.25
2023-01-25T02:03:05.300Z,13.43
2023-01-25T02:07:17.323Z,18.20
2023-01-25T02:11:22.853Z,17.88
2023-01-25T02:15:28.961Z,15.73
2023-01-25T02:19:54.947Z,10.40
2023-01-25T02:24:08.144Z,15.15
2023-01-25T02:28:24.187Z,16.98
2023-01-25T02:32:26.437Z,16.10
2023-01-25T02:36:33.715Z,18.90
2023-01-25T02:40:44.509Z,14.82
2023-01-25T02:44:47.607Z,17.40
2023-01-25T02:48:49.627Z,14.93
2023-01-25T02:52:51.618Z,15.70
2023-01-25T02:56:54.388Z,14.88
2023-01-25T03:00:58.996Z,16.92
2023-01-25T03:05:01.851Z,17.83
2023-01-25T03:09:06.316Z,15.13
2023-01-25T03:13:08.596Z,19.92
2023-01-25T03:17:11.194Z,18.90
2023-01-25T03:21:19.048Z,17.42
2023-01-25T03:25:21.358Z,18.38
2023-01-25T03:29:33.436Z,16.88
2023-01-25T03:33:36.025Z,17.00
2023-01-25T03:37:38.193Z,24.10
2023-01-25T03:41:40.742Z,18.75
2023-01-25T03:45:46.185Z,19.50
2023-01-25T03:49:48.624Z,20.05
2023-01-25T03:53:53.980Z,19.17
2023-01-25T03:57:56.491Z,19.05
2023-01-25T04:01:58.858Z,21.80
2023-01-25T04:06:01.477Z,23.77
2023-01-25T04:10:06.341Z,18.52
2023-01-25T04:14:11.062Z,19.73
2023-01-25T04:18:20.446Z,22.60
2023-01-25T04:22:22.595Z,31.75
2023-01-25T04:26:27.699Z,20.42
2023-01-25T04:30:33.802Z,23.87
2023-01-25T04:34:37.124Z,22.42
2023-01-25T04:38:39.739Z,23.00
2023-01-25T04:42:41.747Z,25.35
2023-01-25T04:46:43.883Z,26.02
2023-01-25T04:50:46.709Z,24.52
2023-01-25T04:54:49.344Z,41.22
2023-01-25T04:58:52.300Z,26.80
2023-01-25T05:02:55.061Z,27.15
2023-01-25T05:06:57.526Z,94.63
2023-01-25T05:11:00.803Z,54.22
2023-01-25T05:15:31.842Z,34.25
2023-01-25T05:19:34.209Z,26.95
2023-01-25T05:23:39.495Z,89.35
2023-01-25T05:27:41.660Z,140.45
2023-01-25T05:32:11.700Z,99.72
2023-01-25T05:36:14.203Z,68.60
2023-01-25T05:40:17.868Z,59.13
2023-01-25T05:44:20.455Z,141.43
2023-01-25T05:48:25.958Z,158.48
2023-01-25T05:52:29.485Z,60.25
2023-01-25T05:56:32.354Z,94.50
2023-01-25T06:00:34.539Z,120.25
2023-01-25T06:04:37.573Z,64.43
2023-01-25T06:08:40.171Z,88.40
2023-01-25T06:12:42.473Z,86.82
2023-01-25T06:16:44.640Z,120.53
2023-01-25T06:21:05.851Z,159.40
2023-01-25T06:25:11.935Z,65.93
2023-01-25T06:29:14.289Z,67.40
2023-01-25T06:33:16.395Z,29.70
2023-01-25T06:37:18.508Z,47.38
2023-01-25T06:41:20.910Z,29.17
2023-01-25T06:45:22.927Z,124.53
2023-01-25T06:49:24.919Z,34.10
2023-01-25T06:53:28.419Z,71.07
2023-01-25T06:57:30.428Z,27.50
2023-01-25T07:01:33.547Z,37.55
2023-01-25T07:05:35.572Z,61.22
2023-01-25T07:09:37.657Z,45.28
2023-01-25T07:13:45.682Z,68.38
2023-01-25T07:17:47.730Z,55.03
2023-01-25T07:21:49.816Z,35.85
2023-01-25T07:25:51.870Z,23.58
2023-01-25T07:29:54.173Z,97.57
2023-01-25T07:33:57.847Z,159.73
2023-01-25T07:37:59.904Z,295.30
2023-01-25T07:42:02.103Z,208.38
2023-01-25T07:46:11.295Z,36.13
2023-01-25T07:50:13.574Z,29.05
2023-01-25T07:54:15.584Z,75.75
2023-01-25T07:58:17.615Z,72.60
2023-01-25T08:02:19.640Z,70.95
2023-01-25T08:06:30.575Z,31.35
2023-01-25T08:10:32.880Z,129.38
2023-01-25T08:14:34.983Z,210.05
2023-01-25T08:18:37.188Z,143.02
2023-01-25T08:22:39.263Z,72.53
2023-01-25T08:26:41.515Z,36.92
2023-01-25T08:30:56.471Z,38.08
2023-01-25T08:34:59.158Z,53.92
2023-01-25T08:39:06.549Z,43.25
2023-01-25T08:43:08.569Z,303.27
2023-01-25T08:47:10.598Z,33.13
2023-01-25T08:51:14.308Z,128.60
2023-01-25T08:55:16.302Z,181.73
2023-01-25T08:59:18.327Z,178.68
2023-01-25T09:03:20.465Z,128.13
2023-01-25T09:07:22.506Z,205.70
2023-01-25T09:11:24.554Z,111.20
2023-01-25T09:15:26.707Z,63.08
2023-01-25T09:19:28.843Z,35.45
2023-01-25T09:23:31.736Z,120.63
2023-01-25T09:27:35.488Z,39.63
2023-01-25T09:31:43.688Z,69.50
2023-01-25T09:35:49.571Z,31.45
2023-01-25T09:39:51.617Z,103.68
2023-01-25T09:44:15.030Z,109.32
2023-01-25T09:48:36.221Z,150.07
2023-01-25T09:53:13.525Z,205.70
2023-01-25T09:57:21.605Z,101.50
2023-01-25T10:01:37.976Z,117.07
2023-01-25T10:05:47.440Z,121.60
2023-01-25T10:09:53.396Z,44.25
2023-01-25T10:13:56.938Z,109.97
2023-01-25T10:18:07.109Z,101.00
2023-01-25T10:22:23.396Z,96.65
2023-01-25T10:26:27.978Z,32.38
2023-01-25T10:30:35.746Z,21.10
2023-01-25T10:34:55.826Z,21.30
2023-01-25T10:39:00.994Z,23.35
2023-01-25T10:43:11.488Z,20.27
2023-01-25T10:47:37.203Z,17.40
2023-01-25T10:51:39.256Z,26.58
2023-01-25T10:55:57.648Z,14.50
2023-01-25T11:00:05.298Z,10.57
2023-01-25T11:04:22.592Z,34.40
2023-01-25T11:08:39.343Z,12.90
2023-01-25T11:12:41.377Z,26.25
2023-01-25T11:16:47.504Z,16.05
2023-01-25T11:21:23.179Z,17.80
2023-01-25T11:25:31.770Z,17.83
2023-01-25T11:29:34.137Z,18.00
2023-01-25T11:33:36.145Z,16.48
2023-01-25T11:37:56.518Z,14.15
2023-01-25T11:42:23.553Z,12.45
2023-01-25T11:46:38.450Z,15.45
2023-01-25T11:50:49.917Z,15.07
2023-01-25T11:55:16.787Z,22.92
2023-01-25T12:00:00.279Z,23.53
2023-01-25T12:04:20.855Z,17.52
2023-01-25T12:08:46.157Z,19.52
2023-01-25T12:13:00.270Z,15.52
2023-01-25T12:17:16.632Z,21.42
2023-01-25T12:21:46.352Z,16.08
2023-01-25T12:26:12.336Z,15.90
2023-01-25T12:30:27.128Z,22.17
2023-01-25T12:34:38.596Z,16.48
2023-01-25T12:38:56.782Z,16.65
2023-01-25T12:43:01.480Z,14.68
2023-01-25T12:47:10.425Z,20.13
2023-01-25T12:51:13.850Z,21.30
2023-01-25T12:55:17.575Z,16.13
2023-01-25T12:59:42.273Z,15.68
2023-01-25T13:04:00.919Z,18.25
2023-01-25T13:08:31.076Z,16.67
2023-01-25T13:12:58.714Z,26.75
2023-01-25T13:17:21.340Z,22.27
2023-01-25T13:21:45.347Z,24.45
2023-01-25T13:25:47.405Z,14.32
2023-01-25T13:30:21.437Z,14.95
2023-01-25T13:34:35.707Z,17.83
2023-01-25T13:38:37.833Z,19.30
2023-01-25T13:42:40.019Z,14.10
2023-01-25T13:46:42.061Z,14.75
2023-01-25T13:50:49.328Z,18.77
2023-01-25T13:54:55.319Z,18.85
2023-01-25T13:58:57.874Z,15.02
2023-01-25T14:03:00.894Z,15.27
2023-01-25T14:07:09.828Z,14.20
2023-01-25T14:11:19.179Z,13.82
2023-01-25T14:15:30.454Z,12.30
2023-01-25T14:19:36.074Z,14.50
2023-01-25T14:23:38.679Z,17.75
2023-01-25T14:27:54.742Z,15.18
2023-01-25T14:31:56.767Z,13.18
2023-01-25T14:36:29.433Z,14.65
2023-01-25T14:40:31.846Z,14.18
2023-01-25T14:44:34.114Z,15.13
2023-01-25T14:48:42.452Z,13.65
2023-01-25T14:52:44.559Z,12.50
2023-01-25T14:56:49.624Z,12.18
2023-01-25T15:00:53.152Z,14.30
2023-01-25T15:05:15.107Z,12.85
2023-01-25T15:09:36.452Z,10.07
2023-01-25T15:13:38.559Z,9.13
2023-01-25T15:17:40.627Z,13.13
2023-01-25T15:21:42.819Z,10.93
2023-01-25T15:25:53.018Z,11.43
2023-01-25T15:29:55.065Z,10.18
2023-01-25T15:33:58.486Z,10.63
2023-01-25T15:38:00.488Z,10.40
2023-01-25T15:42:02.604Z,11.23
2023-01-25T15:46:06.059Z,15.40
2023-01-25T15:50:18.074Z,10.10
2023-01-25T15:54:20.203Z,11.48
2023-01-25T15:58:32.966Z,11.60
2023-01-25T16:02:35.031Z,11.23
2023-01-25T16:06:44.321Z,16.75
2023-01-25T16:10:47.080Z,15.23
2023-01-25T16:14:49.166Z,13.05
2023-01-25T16:18:51.254Z,13.68
2023-01-25T16:22:53.254Z,12.77
2023-01-25T16:26:57.841Z,11.63
2023-01-25T16:31:00.120Z,11.48
2023-01-25T16:35:02.283Z,14.32
2023-01-25T16:39:15.603Z,14.55
2023-01-25T16:43:18.631Z,14.05
2023-01-25T16:47:20.884Z,14.65
2023-01-25T16:51:28.301Z,11.88
2023-01-25T16:55:30.707Z,13.50
2023-01-25T16:59:32.826Z,12.30
2023-01-25T17:03:34.834Z,12.82
2023-01-25T17:07:37.275Z,17.63
2023-01-25T17:11:39.888Z,16.27
2023-01-25T17:15:42.191Z,18.48
2023-01-25T17:19:44.288Z,19.15
2023-01-25T17:23:46.947Z,17.02
2023-01-25T17:27:49.099Z,15.88
2023-01-25T17:31:51.180Z,14.15
2023-01-25T17:35:58.235Z,14.07
2023-01-25T17:44:02.875Z,13.38
2023-01-25T17:48:09.037Z,22.73
2023-01-25T17:52:11.400Z,14.30
2023-01-25T17:56:14.318Z,16.08
2023-01-25T18:00:16.770Z,8.55
2023-01-25T18:04:20.331Z,10.50
2023-01-25T18:08:22.322Z,10.65
2023-01-25T18:12:24.354Z,11.52
2023-01-25T18:16:28.781Z,12.18
2023-01-25T18:20:31.613Z,12.32
2023-01-25T18:24:35.261Z,12.40
2023-01-25T18:28:38.431Z,11.73
2023-01-25T18:32:40.599Z,18.20
2023-01-25T18:36:42.694Z,13.20
2023-01-25T18:40:44.798Z,13.63
2023-01-25T18:44:48.572Z,15.15
2023-01-25T18:48:51.188Z,17.58
2023-01-25T18:52:54.201Z,15.63
2023-01-25T18:56:56.227Z,16.33
2023-01-25T19:01:19.802Z,17.50
2023-01-25T19:05:22.083Z,12.13
2023-01-25T19:09:25.395Z,15.25
2023-01-25T19:13:28.021Z,17.23
2023-01-25T19:17:31.960Z,16.10
2023-01-25T19:21:34.209Z,16.88
2023-01-25T19:25:36.234Z,22.33
2023-01-25T19:29:38.285Z,13.88
2023-01-25T19:33:40.668Z,12.43
2023-01-25T19:37:42.716Z,18.77
2023-01-25T19:41:45.322Z,20.30
2023-01-25T19:45:47.479Z,16.20
2023-01-25T19:49:49.591Z,13.50
2023-01-25T19:54:03.889Z,15.38
2023-01-25T19:58:08.658Z,18.98
2023-01-25T20:02:12.249Z,24.13
2023-01-25T20:06:15.740Z,14.75
2023-01-25T20:10:17.850Z,18.55
2023-01-25T20:14:19.916Z,14.40
2023-01-25T20:18:22.628Z,16.23
2023-01-25T20:22:24.645Z,20.58
2023-01-25T20:26:32.720Z,19.67
2023-01-25T20:30:34.740Z,17.33
2023-01-25T20:34:37.004Z,13.93
2023-01-25T20:38:39.240Z,15.00
2023-01-25T20:42:41.264Z,13.30
2023-01-25T20:46:44.006Z,11.45
2023-01-25T20:50:46.048Z,10.60
2023-01-25T20:54:49.114Z,13.15
2023-01-25T20:58:51.723Z,11.23
2023-01-25T21:02:53.837Z,12.85
2023-01-25T21:06:55.860Z,9.80
2023-01-25T21:10:59.184Z,11.35
2023-01-25T21:15:01.205Z,10.23
2023-01-25T21:19:06.589Z,12.10
2023-01-25T21:23:08.629Z,8.77
2023-01-25T21:27:10.654Z,9.13
2023-01-25T21:31:15.956Z,7.45
2023-01-25T21:35:17.971Z,9.35
2023-01-25T21:39:19.989Z,8.75
2023-01-25T21:43:22.005Z,7.68
2023-01-25T21:47:30.540Z,9.10
2023-01-25T21:51:35.962Z,12.35
2023-01-25T21:55:38.134Z,10.60
2023-01-25T21:59:40.843Z,9.07
2023-01-25T22:03:47.112Z,10.25
2023-01-25T22:07:49.125Z,13.00
2023-01-25T22:11:52.987Z,14.77
2023-01-25T22:15:58.782Z,12.73
2023-01-25T22:20:00.825Z,7.00
2023-01-25T22:24:04.840Z,10.18
2023-01-25T22:28:14.209Z,9.35
2023-01-25T22:32:16.225Z,9.77
2023-01-25T22:36:20.644Z,15.88
2023-01-25T22:40:22.743Z,8.50
2023-01-25T22:44:24.811Z,8.00
2023-01-25T22:48:27.341Z,10.02
2023-01-25T22:52:29.411Z,10.88
2023-01-25T22:56:32.848Z,8.65
2023-01-25T23:00:35.174Z,8.85
2023-01-25T23:04:37.468Z,10.63
2023-01-25T23:08:40.419Z,13.68
2023-01-25T23:12:42.434Z,14.32
2023-01-25T23:16:44.511Z,10.77
2023-01-25T23:20:46.500Z,10.77
2023-01-25T23:24:48.532Z,16.00
2023-01-25T23:28:53.135Z,12.60
2023-01-25T23:32:55.187Z,9.65
2023-01-25T23:36:57.207Z,9.55
2023-01-25T23:41:00.927Z,9.75
2023-01-25T23:45:03.038Z,8.60
2023-01-25T23:49:05.185Z,9.82
2023-01-25T23:53:07.228Z,7.90
2023-01-25T23:57:09.265Z,7.95
